Airfield :
LOGIN :

Register | Disclaimer

   EN    FR    IT 

 










Legend :    VFR   Marginal VFR   IFR   Intensive IFR   Very Intensive IFR
Visi :
Ceiling :
>= 8 km
>= 3000ft
5 to 8 km
1000 to 3000 ft
1500m to 5 km
500 to 1000 ft
800 to 1500m
200 to 500 ft
< 800m
< 200 ft
Symbols :   Thunderstorms  Fog  Heavy snow  Heavy precipitations  Wind > 20 kt
SIGMETs :     Misc.  Thunderstorms  Icing  Turbulence  Mountain Waves  Volcanic Ashes






- Airport Elevation : 50 ft
- IATA code : KOI


EGPA - Kirkwall

CURRENT METAR :
  • 221020Z 29012KT 9999 FEW016 SCT030 15/11 Q1006

EXPIRED METARs :
  • 220950Z 29010KT 9999 FEW014 BKN027 15/12 Q1006
  • 220920Z 29011KT 9999 FEW009 BKN019 14/12 Q1006
  • 220850Z 29010KT 9999 FEW008 BKN015 15/12 Q1005
  • 220820Z 30008KT 9999 FEW008 BKN015 14/12 Q1005
  • 220750Z 28009KT 9999 FEW007 BKN009 14/12 Q1005
  • 220720Z 23005KT 9999 SCT009 15/12 Q1005
  • 220650Z 22004KT 180V250 9999 FEW009 SCT014 14/12 Q1005
  • 220620Z VRB02KT 9999 FEW014 14/13 Q1005
  • 220550Z VRB01KT 9999 FEW014 14/13 Q1005

TAF TAF EGPA
Valid from the 22 at 09:00 until the 22 at 18:00 UTC


220755Z 2209/2218 26012KT 9999 SCT016
PROB30
TEMPO 2209/2211 8000 BKN008
BECMG 2213/2216 16009KT



MET'MAP, your aeronautical weather chart ! - Copyright ORBIFLY December 2007 - Disclaimer

ORBIFLY MET'MAP TEAM :

Programming & Development : Alexandra Zaïnal
Original concept : Baudouin d'Aumeries
Technical & hardware support : Manuel Goepfert
Assistance : Marc-Olivier Méhu




SOURCES & CREDITS :

   NOAA